Time;durP1;ratioP1;P1;durP2;ratioP2;P2;SDS_P1;SDS_P2;PMS_P1;PMS_P2;Temp;Humidity;BMP_temperature;BMP_pressure;BME280_temperature;BME280_humidity;BME280_pressure;Samples;Min_cycle;Max_cycle;Signal;HPM_P1;HPM_P2
2023/03/05 00:02:27;;;;;;;15.37;9.03;;;3.60;99.90;;;;;;10380626;28;20239;-85
2023/03/05 00:07:30;;;;;;;19.23;10.80;;;3.60;99.90;;;;;;10386759;28;20604;-85
2023/03/05 00:12:32;;;;;;;17.83;10.30;;;2.80;99.90;;;;;;10387199;28;20238;-85
2023/03/05 00:17:35;;;;;;;19.30;10.67;;;0.80;99.90;;;;;;10390802;28;20678;-85
2023/03/05 00:22:37;;;;;;;24.20;9.70;;;0.80;99.90;;;;;;10408531;28;20282;-85
2023/03/05 00:27:40;;;;;;;16.80;9.37;;;-0.10;99.90;;;;;;10412117;28;20262;-85
2023/03/05 00:32:43;;;;;;;17.83;10.13;;;-0.40;99.90;;;;;;10413099;28;20263;-85
2023/03/05 00:37:45;;;;;;;15.43;9.20;;;0.60;99.90;;;;;;10413619;28;20307;-85
2023/03/05 00:42:48;;;;;;;13.17;8.07;;;2.10;99.90;;;;;;10412281;28;20562;-85
2023/03/05 00:47:50;;;;;;;21.60;9.50;;;2.30;99.90;;;;;;10413895;28;20676;-85
2023/03/05 00:52:53;;;;;;;16.67;8.90;;;2.50;99.90;;;;;;10395391;28;20247;-85
2023/03/05 00:57:56;;;;;;;18.80;8.93;;;2.00;99.90;;;;;;10392864;28;20280;-85
2023/03/05 01:02:59;;;;;;;14.37;8.33;;;1.30;99.90;;;;;;10394558;28;20249;-85
2023/03/05 01:08:02;;;;;;;18.70;10.10;;;1.60;99.90;;;;;;10394840;28;20733;-85
2023/03/05 01:13:04;;;;;;;21.20;9.83;;;1.00;99.90;;;;;;10394253;28;20240;-85
2023/03/05 01:18:07;;;;;;;21.30;10.33;;;1.30;99.90;;;;;;10411147;28;20680;-85
2023/03/05 01:23:10;;;;;;;20.17;11.77;;;0.30;99.90;;;;;;10393822;28;20686;-85
2023/03/05 01:28:14;;;;;;;20.27;10.97;;;-0.80;99.90;;;;;;10411172;28;20654;-85
2023/03/05 01:33:16;;;;;;;27.30;11.87;;;-1.30;99.90;;;;;;10411891;28;20233;-85
2023/03/05 01:38:19;;;;;;;23.57;12.07;;;-1.70;99.90;;;;;;10410778;28;20235;-85
2023/03/05 01:43:25;;;;;;;25.27;12.33;;;-2.00;99.90;;;;;;10362568;28;20244;-85
2023/03/05 01:48:28;;;;;;;21.93;11.13;;;-2.10;99.90;;;;;;10393041;28;20270;-86
2023/03/05 01:53:30;;;;;;;23.03;12.00;;;-2.10;99.90;;;;;;10409947;28;20698;-85
2023/03/05 01:58:33;;;;;;;19.07;11.77;;;-2.40;99.90;;;;;;10409629;28;20251;-85
2023/03/05 02:03:36;;;;;;;13.27;7.73;;;-2.40;99.90;;;;;;10392597;28;20643;-85
2023/03/05 02:08:39;;;;;;;10.53;7.13;;;-0.70;99.90;;;;;;10390521;28;20331;-85
2023/03/05 02:13:42;;;;;;;16.07;8.90;;;1.30;99.90;;;;;;10391475;28;20309;-85
2023/03/05 02:18:44;;;;;;;14.53;9.57;;;1.60;99.90;;;;;;10391572;28;20254;-85
2023/03/05 02:23:47;;;;;;;17.40;8.97;;;1.70;99.90;;;;;;10391968;28;20261;-85
2023/03/05 02:28:55;;;;;;;13.30;6.70;;;0.90;99.90;;;;;;10378998;28;20310;-85
2023/03/05 02:33:58;;;;;;;9.53;5.93;;;2.90;99.90;;;;;;10368758;28;20247;-85
2023/03/05 02:39:01;;;;;;;9.07;5.80;;;3.60;99.90;;;;;;10400142;28;20247;-85
2023/03/05 02:44:04;;;;;;;9.73;6.13;;;4.10;99.90;;;;;;10389087;28;20304;-86
2023/03/05 02:49:06;;;;;;;10.83;6.93;;;3.60;99.90;;;;;;10407567;28;20270;-85
2023/03/05 02:54:09;;;;;;;12.47;6.20;;;3.90;99.90;;;;;;10389615;28;20239;-85
2023/03/05 02:59:12;;;;;;;15.07;6.80;;;3.50;99.90;;;;;;10390166;28;20237;-85
2023/03/05 03:04:14;;;;;;;12.43;6.77;;;4.50;99.90;;;;;;10389295;28;20396;-85
2023/03/05 03:09:17;;;;;;;9.50;5.30;;;4.70;99.90;;;;;;10408071;28;20263;-85
2023/03/05 03:14:20;;;;;;;11.37;5.97;;;5.40;99.90;;;;;;10406859;28;20790;-85
2023/03/05 03:19:22;;;;;;;10.13;6.27;;;5.50;99.90;;;;;;10390222;28;20393;-85
2023/03/05 03:24:25;;;;;;;10.07;5.47;;;6.30;99.90;;;;;;10389077;28;20308;-85
2023/03/05 03:29:28;;;;;;;11.10;6.07;;;6.50;99.90;;;;;;10406331;28;20339;-85
2023/03/05 03:34:30;;;;;;;10.13;6.10;;;6.60;99.40;;;;;;10406360;28;20301;-85
2023/03/05 03:39:33;;;;;;;8.40;6.03;;;6.90;95.20;;;;;;10406466;28;20285;-85
2023/03/05 03:44:35;;;;;;;8.90;5.80;;;6.20;92.10;;;;;;10405189;28;20308;-85
2023/03/05 03:49:38;;;;;;;12.67;6.33;;;5.70;97.60;;;;;;10406034;28;20308;-85
2023/03/05 03:54:41;;;;;;;14.27;7.27;;;5.00;99.90;;;;;;10405179;28;20235;-85
2023/03/05 03:59:44;;;;;;;9.67;5.23;;;4.80;97.40;;;;;;10405612;28;20302;-85
2023/03/05 04:04:47;;;;;;;10.47;5.40;;;4.80;99.90;;;;;;10402327;28;20648;-85
2023/03/05 04:09:50;;;;;;;8.80;5.47;;;4.80;96.30;;;;;;10406100;28;20335;-85
2023/03/05 04:14:52;;;;;;;10.57;6.67;;;4.20;90.00;;;;;;10404597;28;20255;-85
2023/03/05 04:19:55;;;;;;;9.33;6.10;;;3.70;98.10;;;;;;10405915;28;20275;-85
2023/03/05 04:24:58;;;;;;;12.60;7.10;;;2.90;94.90;;;;;;10404587;28;20684;-85
2023/03/05 04:30:01;;;;;;;11.50;6.57;;;1.90;95.90;;;;;;10404262;28;20630;-85
2023/03/05 04:35:03;;;;;;;14.57;8.40;;;1.20;98.10;;;;;;10404169;28;20688;-85
2023/03/05 04:40:07;;;;;;;20.00;9.37;;;1.20;99.90;;;;;;10405030;28;20304;-85
2023/03/05 04:45:10;;;;;;;22.17;11.63;;;1.10;99.90;;;;;;10403653;28;20719;-85
2023/03/05 04:50:13;;;;;;;22.63;11.80;;;0.60;99.90;;;;;;10405452;28;20258;-85
2023/03/05 04:55:17;;;;;;;33.37;15.43;;;0.30;99.90;;;;;;10404512;28;20783;-85
2023/03/05 05:00:19;;;;;;;30.40;15.20;;;0.30;99.90;;;;;;10387269;28;20250;-85
2023/03/05 05:05:25;;;;;;;28.10;13.67;;;0.20;99.90;;;;;;10411521;28;20768;-85
2023/03/05 05:10:27;;;;;;;20.33;10.73;;;0.20;99.90;;;;;;10393542;28;20320;-85
2023/03/05 05:15:31;;;;;;;22.00;11.90;;;0.30;99.90;;;;;;10409827;28;20676;-85
2023/03/05 05:20:33;;;;;;;19.33;10.33;;;0.20;99.90;;;;;;10410950;28;20239;-86
2023/03/05 05:25:36;;;;;;;20.73;11.87;;;0.20;99.90;;;;;;10378486;28;20275;-86
2023/03/05 05:30:38;;;;;;;21.47;11.90;;;0.20;99.90;;;;;;10332937;28;20262;-85
2023/03/05 05:35:41;;;;;;;18.37;10.20;;;0.20;99.90;;;;;;10368219;28;20692;-86
2023/03/05 05:40:44;;;;;;;17.90;10.23;;;0.70;99.90;;;;;;10370417;28;20255;-86
2023/03/05 05:45:46;;;;;;;12.23;7.30;;;0.90;99.90;;;;;;10367784;28;20608;-85
2023/03/05 05:50:49;;;;;;;10.90;6.67;;;1.80;99.90;;;;;;10370158;28;20289;-85
2023/03/05 05:55:51;;;;;;;13.80;7.60;;;2.60;99.90;;;;;;10367094;28;20749;-86
2023/03/05 06:00:54;;;;;;;14.03;8.30;;;2.50;99.90;;;;;;10368003;28;20270;-85
2023/03/05 06:05:57;;;;;;;15.50;8.53;;;2.00;99.90;;;;;;10368598;28;20314;-85
2023/03/05 06:11:00;;;;;;;27.30;12.17;;;1.80;99.90;;;;;;10368879;28;20269;-85
2023/03/05 06:16:06;;;;;;;41.83;21.13;;;1.80;99.90;;;;;;10367066;28;20241;-85
2023/03/05 06:21:14;;;;;;;38.23;17.50;;;1.50;99.90;;;;;;10368027;28;20622;-85
2023/03/05 06:26:20;;;;;;;46.47;23.57;;;1.30;99.90;;;;;;10367916;28;20248;-85
2023/03/05 06:31:25;;;;;;;20.80;10.27;;;1.30;99.90;;;;;;10367170;28;20296;-85
2023/03/05 06:36:28;;;;;;;10.03;5.83;;;2.20;99.90;;;;;;10365958;28;20233;-86
2023/03/05 06:41:31;;;;;;;9.43;4.67;;;4.80;99.90;;;;;;10363444;28;20741;-85
2023/03/05 06:46:36;;;;;;;5.53;3.67;;;6.40;99.90;;;;;;10292304;28;20633;-85
2023/03/05 06:51:39;;;;;;;4.47;3.00;;;7.80;99.90;;;;;;10286087;28;20279;-85
2023/03/05 06:56:45;;;;;;;8.50;4.30;;;9.50;99.90;;;;;;10360095;28;20251;-85
2023/03/05 07:01:48;;;;;;;5.00;3.37;;;9.10;98.80;;;;;;10346676;28;20309;-85
2023/03/05 07:06:50;;;;;;;6.37;3.77;;;7.90;95.90;;;;;;10325548;28;20294;-86
2023/03/05 07:11:53;;;;;;;6.53;3.77;;;7.50;96.90;;;;;;10324288;28;20306;-85
2023/03/05 07:16:55;;;;;;;7.57;3.70;;;6.80;99.90;;;;;;10324960;28;20306;-85
2023/03/05 07:21:58;;;;;;;6.97;3.37;;;7.10;99.90;;;;;;10324361;28;20300;-85
2023/03/05 07:27:01;;;;;;;6.77;3.40;;;6.60;99.90;;;;;;10331039;28;20311;-85
2023/03/05 07:32:04;;;;;;;6.67;3.90;;;6.70;97.90;;;;;;10407066;28;20315;-85
2023/03/05 07:37:07;;;;;;;4.53;3.27;;;6.70;99.90;;;;;;10405666;28;20675;-84
2023/03/05 07:42:09;;;;;;;5.63;3.60;;;7.20;99.90;;;;;;10389170;28;20671;-84
2023/03/05 07:47:25;;;;;;;8.60;4.37;;;7.00;99.90;;;;;;10385598;28;20242;-85
2023/03/05 07:52:28;;;;;;;5.77;3.20;;;7.00;99.90;;;;;;10405718;28;20841;-85
2023/03/05 07:57:30;;;;;;;7.60;3.83;;;7.40;99.90;;;;;;10406226;28;20677;-85
2023/03/05 08:02:33;;;;;;;6.07;3.37;;;6.90;99.90;;;;;;10405015;28;20689;-85
2023/03/05 08:07:35;;;;;;;4.43;3.27;;;7.30;99.90;;;;;;10405125;28;20651;-85
2023/03/05 08:12:38;;;;;;;6.57;3.60;;;7.70;99.90;;;;;;10405719;28;20240;-85
2023/03/05 08:17:40;;;;;;;5.40;3.43;;;7.00;96.90;;;;;;10388056;28;20277;-85
2023/03/05 08:22:43;;;;;;;5.80;3.80;;;7.20;99.90;;;;;;10403694;28;20231;-85
2023/03/05 08:27:47;;;;;;;4.57;2.90;;;8.10;99.90;;;;;;10405160;28;20305;-85
2023/03/05 08:32:50;;;;;;;4.80;3.10;;;8.70;99.90;;;;;;10405201;28;20308;-86
2023/03/05 08:37:52;;;;;;;6.60;3.77;;;9.00;99.30;;;;;;10407747;28;20243;-86
2023/03/05 08:42:56;;;;;;;7.47;3.93;;;9.10;99.90;;;;;;10412961;28;20316;-86
2023/03/05 08:47:58;;;;;;;6.20;3.50;;;9.30;97.00;;;;;;10393816;28;20307;-86
2023/03/05 08:53:01;;;;;;;4.97;3.60;;;9.80;96.30;;;;;;10412799;28;20897;-86
2023/03/05 08:58:04;;;;;;;5.90;3.53;;;9.80;96.60;;;;;;10413421;28;20735;-86
2023/03/05 09:03:06;;;;;;;5.90;2.33;;;;;;;;;;10413509;28;20284;-86
2023/03/05 09:08:09;;;;;;;3.20;2.53;;;10.60;99.40;;;;;;10394610;28;20279;-85
2023/03/05 09:13:12;;;;;;;5.20;3.30;;;11.10;96.60;;;;;;10412240;28;20733;-86
2023/03/05 09:18:15;;;;;;;9.23;3.87;;;11.10;92.60;;;;;;10413509;28;20291;-86
2023/03/05 09:23:18;;;;;;;5.00;2.13;;;10.70;92.40;;;;;;10395209;28;20258;-85
2023/03/05 09:28:20;;;;;;;8.47;3.23;;;11.00;95.90;;;;;;10411723;28;20700;-86
2023/03/05 09:33:23;;;;;;;6.17;3.30;;;11.40;90.30;;;;;;10411762;28;20293;-86
2023/03/05 09:38:26;;;;;;;6.30;3.97;;;11.50;95.50;;;;;;10410437;28;20254;-86
2023/03/05 09:43:53;;;;;;;5.40;3.00;;;10.70;90.00;;;;;;10393558;28;20250;-86
2023/03/05 09:49:19;;;;;;;13.90;3.70;;;10.90;92.90;;;;;;10410330;28;20650;-86
2023/03/05 09:54:29;;;;;;;3.03;2.00;;;11.00;90.20;;;;;;10385135;28;20300;-87
2023/03/05 10:00:06;;;;;;;4.20;2.10;;;11.20;90.90;;;;;;10392108;28;20981;-87
2023/03/05 10:05:16;;;;;;;9.53;3.93;;;11.20;82.10;;;;;;10357185;28;20281;-88
2023/03/05 10:11:02;;;;;;;6.60;3.13;;;10.90;92.70;;;;;;10403547;28;20322;-88
2023/03/05 10:16:11;;;;;;;5.93;2.53;;;12.10;82.70;;;;;;10334953;28;20734;-90
2023/03/05 10:21:20;;;;;;;2.40;1.67;;;;;;;;;;10335481;28;20237;-91
2023/03/05 10:26:43;;;;;;;3.60;2.10;;;12.50;84.90;;;;;;10384109;28;20685;-90
2023/03/05 10:32:20;;;;;;;3.30;1.53;;;12.10;77.40;;;;;;10391646;28;20316;-91
2023/03/05 10:37:42;;;;;;;4.13;2.03;;;12.30;85.70;;;;;;10392197;28;20310;-90
2023/03/05 10:43:00;;;;;;;3.37;1.83;;;12.00;76.70;;;;;;10387857;28;20243;-90
2023/03/05 10:48:28;;;;;;;3.63;2.20;;;11.40;85.40;;;;;;10386368;28;20585;-90
2023/03/05 10:53:57;;;;;;;3.93;2.10;;;11.80;67.80;;;;;;10383791;28;20332;-90
2023/03/05 10:58:59;;;;;;;2.57;1.70;;;10.80;70.30;;;;;;10387911;28;20292;-89
2023/03/05 11:04:23;;;;;;;6.27;2.23;;;11.40;84.00;;;;;;10042199;28;10000003;-89
2023/03/05 11:09:30;;;;;;;3.63;2.50;;;11.30;78.10;;;;;;10404201;28;20876;-90
2023/03/05 11:14:36;;;;;;;4.90;2.50;;;9.50;66.10;;;;;;10404562;28;20302;-90
2023/03/05 11:19:38;;;;;;;21.23;6.90;;;8.30;49.60;;;;;;10364490;28;20304;-85
2023/03/05 11:25:01;;;;;;;9.23;2.90;;;9.80;59.50;;;;;;10366510;28;20295;-84
2023/03/05 11:30:24;;;;;;;8.40;3.33;;;9.00;43.70;;;;;;10367129;28;20264;-85
2023/03/05 11:35:35;;;;;;;16.57;3.67;;;7.40;49.30;;;;;;10400904;28;20701;-85
2023/03/05 11:40:38;;;;;;;20.77;4.90;;;7.70;57.50;;;;;;10406814;28;20245;-85
2023/03/05 11:45:42;;;;;;;7.93;4.57;;;8.40;54.10;;;;;;10406690;28;20283;-85
2023/03/05 11:50:53;;;;;;;13.90;4.13;;;7.30;44.60;;;;;;10406147;28;20286;-85
2023/03/05 11:56:12;;;;;;;9.37;3.67;;;5.50;66.70;;;;;;10405902;28;20262;-85
2023/03/05 12:01:21;;;;;;;6.27;2.40;;;6.70;59.30;;;;;;10405389;28;20228;-85
2023/03/05 12:06:23;;;;;;;38.90;17.30;;;5.80;53.30;;;;;;10388285;28;20699;-85
2023/03/05 12:11:29;;;;;;;16.07;3.73;;;6.70;64.50;;;;;;10386657;28;20322;-85
2023/03/05 12:16:37;;;;;;;9.30;2.83;;;8.10;67.90;;;;;;10408371;28;20260;-86
2023/03/05 12:21:42;;;;;;;9.77;3.43;;;8.20;68.30;;;;;;10415388;28;20252;-85
2023/03/05 12:27:02;;;;;;;8.27;3.20;;;7.70;63.00;;;;;;10406769;28;20246;-85
2023/03/05 12:32:28;;;;;;;106.57;26.27;;;7.70;59.90;;;;;;10400418;28;20791;-84
2023/03/05 12:37:31;;;;;;;24.77;7.47;;;4.70;66.40;;;;;;10404560;28;20244;-84
2023/03/05 12:42:34;;;;;;;11.30;3.83;;;5.20;91.70;;;;;;10391436;28;20606;-85
2023/03/05 12:47:38;;;;;;;4.13;2.73;;;5.30;92.60;;;;;;10362470;28;20652;-85
2023/03/05 12:52:44;;;;;;;4.20;2.80;;;3.00;86.90;;;;;;10373543;28;20255;-85
2023/03/05 12:57:53;;;;;;;8.57;4.32;;;2.90;87.90;;;;;;10398339;28;20538;-86
2023/03/05 13:02:57;;;;;;;7.83;3.20;;;2.10;95.20;;;;;;10389753;28;20246;-85
2023/03/05 13:08:09;;;;;;;8.57;3.23;;;1.80;99.80;;;;;;10373798;28;20329;-85
2023/03/05 13:13:15;;;;;;;12.40;4.20;;;3.60;99.90;;;;;;10379552;28;20255;-86
2023/03/05 13:18:20;;;;;;;7.00;3.47;;;4.60;99.90;;;;;;10395822;28;20546;-86
2023/03/05 13:23:28;;;;;;;6.10;2.30;;;6.00;99.90;;;;;;10398622;28;20613;-86
2023/03/05 13:28:32;;;;;;;6.27;3.70;;;6.90;99.90;;;;;;10382481;28;20736;-86
2023/03/05 13:33:35;;;;;;;8.23;3.53;;;7.30;98.00;;;;;;10390973;28;20647;-85
2023/03/05 13:38:43;;;;;;;7.87;4.30;;;7.00;97.40;;;;;;10397252;28;20697;-86
2023/03/05 13:43:50;;;;;;;8.50;3.33;;;7.60;95.00;;;;;;10360073;28;20362;-85
2023/03/05 13:48:53;;;;;;;8.83;3.30;;;8.60;97.60;;;;;;10380290;28;20232;-85
2023/03/05 13:53:56;;;;;;;9.83;4.43;;;8.20;96.10;;;;;;10374810;28;20243;-85
2023/03/05 13:58:59;;;;;;;8.90;5.30;;;7.00;52.80;;;;;;10375110;28;20471;-85
2023/03/05 14:04:15;;;;;;;11.27;5.40;;;4.30;83.40;;;;;;10390785;28;20767;-86
2023/03/05 14:09:38;;;;;;;9.83;4.40;;;3.10;91.30;;;;;;10369308;28;20336;-86
2023/03/05 14:14:43;;;;;;;9.77;5.77;;;2.50;94.10;;;;;;10398372;28;21003;-86
2023/03/05 14:19:45;;;;;;;8.43;4.40;;;2.20;96.80;;;;;;10371352;28;20243;-85
2023/03/05 14:24:51;;;;;;;15.70;5.03;;;2.30;99.90;;;;;;10382800;28;20243;-85
2023/03/05 14:29:54;;;;;;;15.67;4.23;;;3.70;99.90;;;;;;10390726;28;20259;-86
2023/03/05 14:34:59;;;;;;;7.60;3.93;;;5.30;99.90;;;;;;10389264;28;20466;-85
2023/03/05 14:40:12;;;;;;;20.80;4.63;;;6.00;99.90;;;;;;10387076;28;20277;-85
2023/03/05 14:45:18;;;;;;;9.80;4.07;;;7.60;99.90;;;;;;10399413;28;20266;-85
2023/03/05 14:50:26;;;;;;;14.93;4.57;;;8.20;98.00;;;;;;10405115;28;20820;-85
2023/03/05 14:55:32;;;;;;;12.57;5.43;;;8.40;99.90;;;;;;10389350;28;20650;-85
2023/03/05 15:00:34;;;;;;;13.90;3.93;;;8.40;97.80;;;;;;10389165;28;20252;-85
2023/03/05 15:05:38;;;;;;;11.90;3.40;;;8.70;99.00;;;;;;10405530;28;20271;-86
2023/03/05 15:10:40;;;;;;;10.77;4.13;;;8.80;99.60;;;;;;10389498;28;20316;-85
2023/03/05 15:15:44;;;;;;;10.10;5.60;;;9.00;98.00;;;;;;10407257;28;20293;-87
2023/03/05 15:20:50;;;;;;;7.53;3.57;;;6.90;63.00;;;;;;10387249;28;20243;-85
2023/03/05 15:25:53;;;;;;;10.67;4.50;;;6.70;99.90;;;;;;10387444;28;20573;-86
2023/03/05 15:30:56;;;;;;;10.87;4.17;;;8.00;99.90;;;;;;10404567;28;20695;-85
2023/03/05 15:36:01;;;;;;;10.03;4.93;;;8.40;93.00;;;;;;10394450;28;20637;-85
2023/03/05 15:41:05;;;;;;;23.57;5.03;;;7.90;92.70;;;;;;10387464;28;20246;-85
2023/03/05 15:46:07;;;;;;;11.00;3.97;;;8.10;98.60;;;;;;10387632;28;20238;-85
2023/03/05 15:51:10;;;;;;;6.93;3.07;;;8.10;97.80;;;;;;10404951;28;20756;-85
2023/03/05 15:56:17;;;;;;;10.00;4.90;;;9.10;91.10;;;;;;10387836;28;20295;-85
2023/03/05 16:01:21;;;;;;;7.53;3.33;;;7.80;94.20;;;;;;10405932;28;20678;-85
2023/03/05 16:06:24;;;;;;;7.87;3.20;;;7.90;80.90;;;;;;10039231;28;9999893;-85
2023/03/05 16:11:28;;;;;;;4.87;2.70;;;7.80;77.50;;;;;;10400758;28;20678;-85
2023/03/05 16:16:31;;;;;;;11.57;4.00;;;7.90;79.60;;;;;;10398194;28;20307;-86
2023/03/05 16:21:34;;;;;;;9.37;4.07;;;8.30;63.00;;;;;;10417634;28;20652;-84
2023/03/05 16:26:39;;;;;;;20.87;10.27;;;8.30;76.70;;;;;;10400240;28;20757;-85
2023/03/05 16:31:43;;;;;;;14.27;7.93;;;6.60;39.80;;;;;;10381186;28;20797;-85
2023/03/05 16:36:49;;;;;;;5.10;3.63;;;;;;;;;;10382222;28;20239;-85
2023/03/05 16:41:52;;;;;;;15.20;7.37;;;3.50;72.50;;;;;;10399178;28;20327;-84
2023/03/05 16:46:55;;;;;;;22.63;9.50;;;3.20;97.10;;;;;;10400168;28;20294;-85
2023/03/05 16:51:58;;;;;;;7.93;4.80;;;3.30;99.50;;;;;;10381198;28;20820;-85
2023/03/05 16:57:08;;;;;;;8.70;3.53;;;3.00;95.60;;;;;;10381601;28;20238;-85
2023/03/05 17:02:11;;;;;;;7.93;4.77;;;3.00;99.50;;;;;;10407158;28;20762;-84
2023/03/05 17:07:14;;;;;;;6.53;3.83;;;3.10;99.90;;;;;;10404559;28;20247;-85
2023/03/05 17:12:18;;;;;;;9.57;4.80;;;3.50;99.90;;;;;;10406909;28;20329;-84
2023/03/05 17:17:21;;;;;;;10.30;4.70;;;4.20;99.90;;;;;;10406200;28;20609;-84
2023/03/05 17:22:23;;;;;;;9.93;5.53;;;4.50;98.80;;;;;;10405645;28;20263;-85
2023/03/05 17:27:26;;;;;;;13.67;5.87;;;3.80;97.40;;;;;;10388261;28;20263;-84
2023/03/05 17:32:29;;;;;;;13.37;6.10;;;3.80;99.90;;;;;;10386728;28;20367;-84
2023/03/05 17:37:31;;;;;;;19.43;11.10;;;4.10;99.90;;;;;;10419426;28;20292;-84
2023/03/05 17:42:34;;;;;;;23.13;10.43;;;4.30;99.90;;;;;;10405400;28;20249;-84
2023/03/05 17:47:37;;;;;;;6.83;5.40;;;4.10;99.90;;;;;;10388965;28;20311;-85
2023/03/05 17:52:40;;;;;;;11.70;7.20;;;4.60;99.90;;;;;;10391763;28;20735;-85
2023/03/05 17:57:43;;;;;;;16.30;11.67;;;4.70;98.10;;;;;;10373827;28;20305;-84
2023/03/05 18:02:47;;;;;;;20.42;15.15;;;2.40;93.40;;;;;;10395097;28;20920;-84
2023/03/05 18:07:50;;;;;;;15.03;9.20;;;;;;;;;;10408322;28;20239;-85
2023/03/05 18:12:54;;;;;;;12.83;7.40;;;0.70;99.90;;;;;;10409293;28;20266;-85
2023/03/05 18:17:57;;;;;;;16.47;7.53;;;0.20;99.90;;;;;;10408310;28;20321;-84
2023/03/05 18:23:01;;;;;;;12.75;8.38;;;0.20;99.90;;;;;;10406941;28;20468;-84
2023/03/05 18:28:08;;;;;;;13.27;8.85;;;0.10;99.90;;;;;;10388744;28;21068;-83
2023/03/05 18:33:22;;;;;;;15.07;8.93;;;-0.10;99.90;;;;;;10411997;28;20771;-84
2023/03/05 18:38:28;;;;;;;19.97;10.47;;;-0.10;99.90;;;;;;10409703;28;20469;-84
2023/03/05 18:43:31;;;;;;;22.30;11.67;;;-0.20;99.90;;;;;;10387594;28;20469;-84
2023/03/05 18:48:33;;;;;;;17.90;9.60;;;-0.20;99.90;;;;;;10382766;28;20999;-84
2023/03/05 18:53:36;;;;;;;15.70;9.90;;;-0.30;99.90;;;;;;10390120;28;20264;-84
2023/03/05 18:58:39;;;;;;;17.37;9.97;;;-0.30;99.90;;;;;;10390607;28;20782;-84
2023/03/05 19:03:46;;;;;;;19.20;10.87;;;-0.40;99.90;;;;;;10387213;28;20680;-84
2023/03/05 19:08:55;;;;;;;20.15;12.32;;;-0.40;99.90;;;;;;10388974;28;20485;-86
2023/03/05 19:13:58;;;;;;;21.33;12.33;;;-0.50;99.90;;;;;;10406249;28;20255;-83
2023/03/05 19:19:18;;;;;;;17.53;9.57;;;-0.60;99.90;;;;;;10378234;28;20243;-84
2023/03/05 19:24:23;;;;;;;18.13;8.20;;;;;;;;;;10394134;28;20245;-85
2023/03/05 19:29:31;;;;;;;17.33;9.27;;;-0.60;99.90;;;;;;10375761;28;20715;-85
2023/03/05 19:34:34;;;;;;;18.87;8.87;;;-0.30;99.90;;;;;;10372123;28;20258;-85
2023/03/05 19:39:37;;;;;;;19.73;9.83;;;0.10;99.90;;;;;;10405210;28;20281;-84
2023/03/05 19:44:39;;;;;;;20.47;11.30;;;0.50;99.90;;;;;;10390959;28;20268;-85
2023/03/05 19:49:42;;;;;;;22.63;11.60;;;0.80;99.90;;;;;;10387752;28;20277;-84
2023/03/05 19:54:45;;;;;;;18.63;10.87;;;0.60;99.90;;;;;;10387561;28;20251;-84
2023/03/05 19:59:51;;;;;;;18.73;10.97;;;0.60;99.90;;;;;;10385434;28;20683;-84
2023/03/05 20:04:54;;;;;;;16.80;10.47;;;0.70;99.90;;;;;;10404772;28;20628;-85
2023/03/05 20:09:57;;;;;;;21.07;12.13;;;0.30;99.90;;;;;;10405157;28;20273;-84
2023/03/05 20:14:59;;;;;;;29.13;14.33;;;0.10;99.90;;;;;;10391324;28;20259;-84
2023/03/05 20:20:02;;;;;;;27.13;14.40;;;0.00;99.90;;;;;;10370205;28;20232;-85
2023/03/05 20:25:05;;;;;;;31.20;15.33;;;0.10;99.90;;;;;;10405439;28;20231;-84
2023/03/05 20:30:11;;;;;;;27.10;13.93;;;-0.20;99.90;;;;;;10403069;28;20266;-84
2023/03/05 20:35:17;;;;;;;42.10;17.97;;;0.10;99.90;;;;;;10406640;28;20267;-84
2023/03/05 20:40:19;;;;;;;46.63;16.83;;;0.90;99.90;;;;;;10385772;28;20744;-83
2023/03/05 20:45:22;;;;;;;31.97;16.13;;;1.70;99.90;;;;;;10414999;28;20345;-83
2023/03/05 20:50:26;;;;;;;26.50;13.03;;;2.10;99.90;;;;;;10423489;28;20292;-83
2023/03/05 20:55:29;;;;;;;18.87;10.83;;;2.50;99.90;;;;;;10410105;28;20261;-83
2023/03/05 21:00:32;;;;;;;22.23;10.13;;;2.90;99.90;;;;;;10399462;28;20243;-83
2023/03/05 21:05:36;;;;;;;18.13;8.57;;;3.50;99.90;;;;;;10410286;28;20297;-83
2023/03/05 21:10:38;;;;;;;19.70;10.53;;;4.10;99.90;;;;;;10429059;28;20291;-83
2023/03/05 21:15:41;;;;;;;17.13;9.97;;;3.80;99.90;;;;;;10427727;28;20243;-83
2023/03/05 21:20:43;;;;;;;16.77;10.80;;;2.30;99.90;;;;;;10411872;28;20622;-83
2023/03/05 21:25:46;;;;;;;26.80;12.77;;;0.80;99.90;;;;;;10385041;28;20240;-83
2023/03/05 21:30:51;;;;;;;33.83;15.50;;;0.30;99.90;;;;;;10360313;28;20699;-83
2023/03/05 21:35:56;;;;;;;38.20;19.17;;;0.20;99.90;;;;;;10369610;28;20292;-82
2023/03/05 21:41:00;;;;;;;46.00;21.23;;;0.20;99.90;;;;;;10370289;28;20248;-83
2023/03/05 21:46:03;;;;;;;38.73;19.97;;;0.60;99.90;;;;;;10371738;28;20254;-83
2023/03/05 21:51:07;;;;;;;36.67;17.10;;;1.30;99.90;;;;;;10352165;28;20245;-82
2023/03/05 22:01:23;;;;;;;37.83;19.80;;;1.90;99.90;;;;;;10345537;28;20356;-83
2023/03/05 22:06:26;;;;;;;33.37;16.63;;;2.10;99.90;;;;;;10367488;28;20239;-82
2023/03/05 22:11:28;;;;;;;39.63;20.30;;;2.30;99.90;;;;;;10368854;28;20653;-83
2023/03/05 22:16:31;;;;;;;33.90;13.53;;;2.60;99.90;;;;;;10355699;28;20250;-83
2023/03/05 22:21:33;;;;;;;33.40;16.83;;;3.50;99.90;;;;;;10349029;28;20201;-83
2023/03/05 22:26:39;;;;;;;29.20;16.57;;;4.30;99.90;;;;;;10368925;28;20301;-82
2023/03/05 22:31:44;;;;;;;41.87;19.13;;;3.90;99.90;;;;;;10367504;28;20261;-82
2023/03/05 22:36:46;;;;;;;73.97;31.17;;;3.90;99.90;;;;;;10367436;28;20284;-82
2023/03/05 22:41:49;;;;;;;61.20;27.57;;;3.90;99.90;;;;;;10351030;28;20241;-82
2023/03/05 22:46:51;;;;;;;43.27;22.50;;;3.00;99.90;;;;;;10349795;28;20301;-82
2023/03/05 22:51:54;;;;;;;40.73;18.57;;;2.30;99.90;;;;;;10366381;28;20294;-82
2023/03/05 22:56:57;;;;;;;41.00;20.40;;;2.50;99.90;;;;;;10335910;28;20237;-82
2023/03/05 23:01:59;;;;;;;36.60;17.30;;;2.10;99.90;;;;;;10366326;28;20251;-82
2023/03/05 23:07:02;;;;;;;43.70;25.80;;;1.80;99.90;;;;;;10349188;28;20280;-81
2023/03/05 23:12:05;;;;;;;46.83;20.90;;;0.90;99.90;;;;;;10348325;28;20721;-79
2023/03/05 23:17:08;;;;;;;40.47;19.23;;;1.40;99.90;;;;;;10366911;28;20236;-80
2023/03/05 23:22:11;;;;;;;35.40;20.03;;;1.30;99.90;;;;;;10347404;28;21027;-80
2023/03/05 23:27:16;;;;;;;42.63;22.87;;;-0.10;99.90;;;;;;10365864;28;20294;-80
2023/03/05 23:32:19;;;;;;;34.87;21.50;;;-1.00;99.90;;;;;;10364076;28;20282;-79
2023/03/05 23:37:21;;;;;;;50.20;23.23;;;-1.90;99.90;;;;;;10365695;28;20636;-80
2023/03/05 23:42:24;;;;;;;38.63;20.43;;;-2.10;99.90;;;;;;10365845;28;20298;-80
2023/03/05 23:47:27;;;;;;;42.13;22.93;;;-2.30;99.90;;;;;;10366224;28;20282;-78
2023/03/05 23:52:29;;;;;;;54.30;25.47;;;-2.40;99.90;;;;;;10347276;28;20314;-79
2023/03/05 23:57:33;;;;;;;49.33;26.63;;;-2.50;99.90;;;;;;10365718;28;20240;-80
